Time;durP1;ratioP1;P1;durP2;ratioP2;P2;SDS_P1;SDS_P2;PMS_P1;PMS_P2;Temp;Humidity;BMP_temperature;BMP_pressure;BME280_temperature;BME280_humidity;BME280_pressure;Samples;Min_cycle;Max_cycle;Signal;HPM_P1;HPM_P2
2021/07/08 00:01:23;;;;;;;10.47;7.83;;;;;;;;;;5090248;28;20457;-66
2021/07/08 00:03:49;;;;;;;9.17;7.23;;;;;;;;;;5074158;28;20404;-66
2021/07/08 00:06:15;;;;;;;8.20;7.23;;;;;;;;;;5074020;28;20787;-66
2021/07/08 00:08:41;;;;;;;8.53;7.40;;;;;;;;;;5072443;28;20456;-66
2021/07/08 00:11:07;;;;;;;12.47;8.30;;;;;;;;;;5073973;28;20474;-66
2021/07/08 00:13:34;;;;;;;10.40;8.50;;;;;;;;;;5056322;28;20920;-66
2021/07/08 00:16:00;;;;;;;10.27;8.60;;;;;;;;;;5053960;28;20456;-66
2021/07/08 00:18:27;;;;;;;9.50;7.67;;;;;;;;;;5081742;28;20464;-66
2021/07/08 00:20:53;;;;;;;9.17;7.20;;;;;;;;;;5093786;28;20995;-67
2021/07/08 00:23:20;;;;;;;10.67;7.40;;;;;;;;;;5086591;28;20433;-66
2021/07/08 00:25:46;;;;;;;11.57;7.10;;;;;;;;;;5073904;28;20408;-66
2021/07/08 00:28:13;;;;;;;12.60;7.80;;;;;;;;;;5084243;28;20447;-65
2021/07/08 00:30:40;;;;;;;8.97;7.90;;;;;;;;;;5093955;28;20438;-66
2021/07/08 00:33:06;;;;;;;10.60;7.40;;;;;;;;;;5091912;28;20904;-66
2021/07/08 00:35:32;;;;;;;10.87;8.10;;;;;;;;;;5091768;28;20434;-65
2021/07/08 00:37:58;;;;;;;8.60;7.60;;;;;;;;;;5091843;28;20909;-66
2021/07/08 00:40:24;;;;;;;8.47;7.43;;;;;;;;;;5093691;28;20464;-66
2021/07/08 00:42:51;;;;;;;8.63;6.50;;;;;;;;;;5075604;28;20499;-66
2021/07/08 00:45:18;;;;;;;11.10;8.40;;;;;;;;;;5053846;28;20821;-66
2021/07/08 00:47:44;;;;;;;8.33;7.53;;;;;;;;;;5053441;28;20461;-65
2021/07/08 00:50:12;;;;;;;8.20;7.07;;;;;;;;;;5053514;28;20765;-68
2021/07/08 00:52:38;;;;;;;7.37;6.67;;;;;;;;;;5064046;28;20420;-66
2021/07/08 00:55:05;;;;;;;18.13;7.57;;;;;;;;;;5093696;28;20404;-66
2021/07/08 00:57:31;;;;;;;12.13;8.20;;;;;;;;;;5082609;28;20481;-65
2021/07/08 00:59:58;;;;;;;9.20;8.07;;;;;;;;;;5093237;28;20424;-66
2021/07/08 01:02:24;;;;;;;9.50;8.00;;;;;;;;;;5091308;28;20416;-66
2021/07/08 01:04:51;;;;;;;12.10;8.40;;;;;;;;;;5093034;28;20774;-65
2021/07/08 01:07:19;;;;;;;8.50;7.43;;;;;;;;;;5088162;28;20464;-67
2021/07/08 01:09:45;;;;;;;7.97;7.17;;;;;;;;;;5069882;28;20421;-66
2021/07/08 01:12:11;;;;;;;9.97;7.80;;;;;;;;;;5071093;28;20405;-66
2021/07/08 01:14:37;;;;;;;8.70;7.57;;;;;;;;;;5053086;28;20493;-66
2021/07/08 01:17:07;;;;;;;10.10;8.30;;;;;;;;;;5052832;28;20477;-67
2021/07/08 01:19:35;;;;;;;7.13;6.40;;;;;;;;;;5052615;28;20405;-66
2021/07/08 01:22:01;;;;;;;7.53;6.83;;;;;;;;;;5052178;28;20394;-66
2021/07/08 01:24:28;;;;;;;9.33;6.00;;;;;;;;;;5092329;28;20412;-66
2021/07/08 01:26:54;;;;;;;8.30;6.40;;;;;;;;;;5092831;28;20448;-66
2021/07/08 01:29:20;;;;;;;10.77;7.13;;;;;;;;;;5054414;28;20420;-69
2021/07/08 01:31:46;;;;;;;6.80;5.60;;;;;;;;;;5056465;28;20472;-66
2021/07/08 01:34:12;;;;;;;7.10;5.40;;;;;;;;;;5066260;28;20512;-66
2021/07/08 01:36:38;;;;;;;6.97;5.60;;;;;;;;;;5071254;28;20486;-66
2021/07/08 01:39:05;;;;;;;6.80;5.40;;;;;;;;;;5082951;28;20492;-66
2021/07/08 01:41:31;;;;;;;6.67;5.23;;;;;;;;;;5092740;28;20420;-65
2021/07/08 01:43:59;;;;;;;6.10;5.50;;;;;;;;;;5089603;28;20485;-66
2021/07/08 01:46:25;;;;;;;4.80;4.40;;;;;;;;;;5092935;28;20809;-65
2021/07/08 01:48:51;;;;;;;5.57;4.87;;;;;;;;;;5080440;28;20449;-67
2021/07/08 01:51:24;;;;;;;6.00;5.50;;;;;;;;;;5072674;28;20416;-66
2021/07/08 01:53:50;;;;;;;7.60;5.67;;;;;;;;;;5070635;28;20843;-66
2021/07/08 01:56:17;;;;;;;4.80;4.30;;;;;;;;;;5072846;28;20480;-65
2021/07/08 01:58:43;;;;;;;6.90;5.57;;;;;;;;;;5071620;28;20425;-66
2021/07/08 02:01:09;;;;;;;9.40;5.80;;;;;;;;;;5084081;28;20519;-66
2021/07/08 02:03:36;;;;;;;5.50;4.63;;;;;;;;;;5070161;28;20421;-66
2021/07/08 02:06:02;;;;;;;5.10;4.47;;;;;;;;;;5055140;28;20402;-66
2021/07/08 02:08:28;;;;;;;4.80;4.30;;;;;;;;;;5060417;28;20468;-67
2021/07/08 02:10:54;;;;;;;5.43;4.60;;;;;;;;;;5076210;28;20421;-66
2021/07/08 02:13:20;;;;;;;5.60;4.50;;;;;;;;;;5078596;28;20426;-66
2021/07/08 02:15:46;;;;;;;5.10;4.17;;;;;;;;;;5096475;28;20399;-65
2021/07/08 02:18:12;;;;;;;4.33;3.67;;;;;;;;;;5092163;28;20399;-66
2021/07/08 02:20:38;;;;;;;4.60;4.00;;;;;;;;;;5075864;28;20933;-66
2021/07/08 02:23:04;;;;;;;4.90;3.60;;;;;;;;;;5074243;28;20455;-66
2021/07/08 02:25:30;;;;;;;5.40;3.43;;;;;;;;;;5056008;28;20731;-65
2021/07/08 02:27:58;;;;;;;4.90;4.40;;;;;;;;;;5057091;28;20479;-68
2021/07/08 02:30:25;;;;;;;6.33;4.10;;;;;;;;;;5095309;28;20463;-66
2021/07/08 02:32:52;;;;;;;4.50;3.83;;;;;;;;;;5093751;28;20984;-66
2021/07/08 02:35:20;;;;;;;4.50;3.63;;;;;;;;;;5093785;28;20432;-66
2021/07/08 02:37:46;;;;;;;4.63;4.03;;;;;;;;;;5095980;28;20758;-66
2021/07/08 02:40:23;;;;;;;4.53;3.90;;;;;;;;;;5058887;28;20453;-66
2021/07/08 02:42:52;;;;;;;4.53;4.03;;;;;;;;;;5055622;28;20520;-66
2021/07/08 02:45:22;;;;;;;4.00;3.60;;;;;;;;;;5091277;28;20939;-66
2021/07/08 02:47:49;;;;;;;4.07;3.60;;;;;;;;;;5073731;28;20460;-65
2021/07/08 02:50:15;;;;;;;5.60;4.27;;;;;;;;;;5074457;28;20441;-66
2021/07/08 02:52:42;;;;;;;5.20;4.37;;;;;;;;;;5075284;28;20401;-66
2021/07/08 02:55:08;;;;;;;5.00;3.93;;;;;;;;;;5074156;28;20429;-66
2021/07/08 02:57:34;;;;;;;5.73;4.20;;;;;;;;;;5075422;28;20915;-66
2021/07/08 03:00:01;;;;;;;4.70;4.17;;;;;;;;;;5059365;28;20527;-69
2021/07/08 03:02:27;;;;;;;4.83;4.30;;;;;;;;;;5057829;28;20433;-66
2021/07/08 03:04:53;;;;;;;4.27;3.67;;;;;;;;;;5071991;28;20437;-66
2021/07/08 03:07:19;;;;;;;4.23;3.83;;;;;;;;;;5071427;28;20555;-66
2021/07/08 03:09:45;;;;;;;5.57;3.90;;;;;;;;;;5086054;28;20506;-66
2021/07/08 03:12:11;;;;;;;4.23;3.80;;;;;;;;;;5095097;28;20388;-66
2021/07/08 03:14:37;;;;;;;4.00;3.60;;;;;;;;;;5091249;28;20430;-66
2021/07/08 03:17:03;;;;;;;5.17;4.40;;;;;;;;;;5095071;28;20403;-65
2021/07/08 03:19:29;;;;;;;5.20;4.70;;;;;;;;;;5093193;28;20423;-66
2021/07/08 03:21:55;;;;;;;4.90;3.77;;;;;;;;;;5094986;28;20431;-65
2021/07/08 03:24:21;;;;;;;4.27;3.87;;;;;;;;;;5084999;28;20925;-65
2021/07/08 03:26:47;;;;;;;4.03;3.27;;;;;;;;;;5074835;28;20526;-65
2021/07/08 03:29:13;;;;;;;5.50;3.93;;;;;;;;;;5080370;28;20796;-66
2021/07/08 03:31:39;;;;;;;4.20;3.80;;;;;;;;;;5094475;28;20443;-65
2021/07/08 03:34:05;;;;;;;4.90;3.50;;;;;;;;;;5092842;28;20424;-65
2021/07/08 03:36:31;;;;;;;7.67;3.53;;;;;;;;;;5094593;28;20396;-65
2021/07/08 03:38:57;;;;;;;5.40;3.70;;;;;;;;;;5092582;28;20957;-65
2021/07/08 03:41:23;;;;;;;3.90;3.40;;;;;;;;;;5094612;28;20896;-65
2021/07/08 03:43:49;;;;;;;5.10;3.70;;;;;;;;;;5092861;28;20708;-65
2021/07/08 03:46:15;;;;;;;6.30;3.63;;;;;;;;;;5095090;28;20393;-65
2021/07/08 03:48:41;;;;;;;3.87;3.27;;;;;;;;;;5070777;28;20511;-66
2021/07/08 03:51:07;;;;;;;5.50;4.27;;;;;;;;;;5059903;28;20500;-66
2021/07/08 03:53:33;;;;;;;4.13;3.53;;;;;;;;;;5052974;28;20606;-66
2021/07/08 03:55:59;;;;;;;4.20;3.67;;;;;;;;;;5053881;28;20961;-65
2021/07/08 03:58:25;;;;;;;4.70;3.60;;;;;;;;;;5054123;28;20442;-65
2021/07/08 04:00:52;;;;;;;7.73;4.40;;;;;;;;;;5092214;28;20451;-67
2021/07/08 04:03:18;;;;;;;4.63;3.93;;;;;;;;;;5094339;28;20392;-65
2021/07/08 04:05:45;;;;;;;4.70;3.87;;;;;;;;;;5092454;28;20451;-66
2021/07/08 04:08:11;;;;;;;5.37;4.00;;;;;;;;;;5094415;28;21040;-66
2021/07/08 04:10:38;;;;;;;5.00;3.53;;;;;;;;;;5092011;28;20440;-65
2021/07/08 04:13:05;;;;;;;5.20;4.33;;;;;;;;;;5077920;28;20856;-66
2021/07/08 04:15:32;;;;;;;4.30;3.80;;;;;;;;;;5056980;28;20430;-65
2021/07/08 04:17:58;;;;;;;5.37;3.43;;;;;;;;;;5052674;28;20822;-65
2021/07/08 04:20:24;;;;;;;4.57;3.97;;;;;;;;;;5082853;28;20947;-65
2021/07/08 04:22:50;;;;;;;6.23;5.60;;;;;;;;;;5094080;28;20405;-65
2021/07/08 04:25:17;;;;;;;6.30;3.90;;;;;;;;;;5086124;28;20428;-66
2021/07/08 04:27:44;;;;;;;4.10;3.70;;;;;;;;;;5094270;28;20448;-65
2021/07/08 04:30:10;;;;;;;4.10;3.70;;;;;;;;;;5091867;28;20463;-66
2021/07/08 04:32:36;;;;;;;5.50;4.50;;;;;;;;;;5093969;28;20381;-65
2021/07/08 04:35:03;;;;;;;6.17;4.37;;;;;;;;;;5070333;28;20480;-65
2021/07/08 04:37:29;;;;;;;6.30;4.47;;;;;;;;;;5052465;28;20902;-65
2021/07/08 04:39:55;;;;;;;5.00;4.50;;;;;;;;;;5053319;28;20903;-65
2021/07/08 04:42:21;;;;;;;5.53;3.90;;;;;;;;;;5053591;28;20492;-65
2021/07/08 04:44:47;;;;;;;5.63;4.73;;;;;;;;;;5086764;28;20436;-65
2021/07/08 04:47:14;;;;;;;5.83;4.37;;;;;;;;;;5091722;28;20462;-65
2021/07/08 04:49:41;;;;;;;7.20;3.93;;;;;;;;;;5091809;28;20420;-65
2021/07/08 04:52:07;;;;;;;6.70;5.13;;;;;;;;;;5093475;28;20400;-67
2021/07/08 04:54:33;;;;;;;8.07;5.03;;;;;;;;;;5091652;28;20438;-67
2021/07/08 04:57:00;;;;;;;6.63;4.40;;;;;;;;;;5093528;28;20404;-65
2021/07/08 04:59:26;;;;;;;8.43;4.93;;;;;;;;;;5065670;28;20512;-67
2021/07/08 05:01:52;;;;;;;6.90;5.30;;;;;;;;;;5056556;28;20564;-66
2021/07/08 05:04:18;;;;;;;10.70;5.33;;;;;;;;;;5063373;28;20426;-66
2021/07/08 05:06:44;;;;;;;9.67;5.40;;;;;;;;;;5052816;28;20988;-66
2021/07/08 05:09:10;;;;;;;7.80;5.83;;;;;;;;;;5068164;28;20424;-66
2021/07/08 05:11:36;;;;;;;9.37;6.10;;;;;;;;;;5093240;28;20419;-66
2021/07/08 05:14:02;;;;;;;6.03;5.43;;;;;;;;;;5091274;28;20789;-65
2021/07/08 05:16:28;;;;;;;6.03;5.40;;;;;;;;;;5093183;28;20399;-67
2021/07/08 05:18:54;;;;;;;7.60;6.70;;;;;;;;;;5084874;28;20424;-67
2021/07/08 05:21:21;;;;;;;8.33;7.63;;;;;;;;;;5072922;28;20421;-67
2021/07/08 05:23:47;;;;;;;7.40;6.70;;;;;;;;;;5068032;28;20432;-66
2021/07/08 05:26:13;;;;;;;7.40;6.70;;;;;;;;;;5053073;28;20928;-67
2021/07/08 05:28:39;;;;;;;10.00;7.20;;;;;;;;;;5057946;28;20464;-67
2021/07/08 05:31:05;;;;;;;8.63;6.90;;;;;;;;;;5106738;22;20587;-69
2021/07/08 05:33:31;;;;;;;8.50;7.47;;;;;;;;;;5090831;28;20800;-69
2021/07/08 05:35:57;;;;;;;8.73;7.33;;;;;;;;;;5093291;28;20405;-68
2021/07/08 05:38:23;;;;;;;8.53;6.67;;;;;;;;;;5091959;28;20775;-69
2021/07/08 05:40:49;;;;;;;8.57;7.30;;;;;;;;;;5097254;28;20448;-69
2021/07/08 05:43:15;;;;;;;9.50;7.93;;;;;;;;;;5097099;28;20445;-69
2021/07/08 05:45:41;;;;;;;8.70;7.80;;;;;;;;;;5095183;28;20486;-69
2021/07/08 05:48:08;;;;;;;9.90;8.97;;;;;;;;;;5071355;28;20941;-68
2021/07/08 05:50:34;;;;;;;8.73;7.53;;;;;;;;;;5093268;28;20447;-69
2021/07/08 05:53:00;;;;;;;12.00;9.70;;;;;;;;;;5097135;28;20421;-69
2021/07/08 05:55:26;;;;;;;11.87;8.63;;;;;;;;;;5088407;28;20991;-69
2021/07/08 05:57:52;;;;;;;10.20;9.03;;;;;;;;;;5096657;28;20488;-69
2021/07/08 06:00:20;;;;;;;10.13;9.13;;;;;;;;;;5094441;28;20445;-69
2021/07/08 06:02:46;;;;;;;9.97;8.97;;;;;;;;;;5096612;28;20957;-69
2021/07/08 06:05:13;;;;;;;11.83;8.50;;;;;;;;;;5081807;28;20487;-69
2021/07/08 06:07:39;;;;;;;10.83;9.73;;;;;;;;;;5076317;28;20539;-69
2021/07/08 06:10:06;;;;;;;11.80;9.50;;;;;;;;;;5087770;28;20444;-68
2021/07/08 06:12:32;;;;;;;14.50;9.43;;;;;;;;;;5096419;28;20883;-68
2021/07/08 06:14:58;;;;;;;10.83;9.60;;;;;;;;;;5094291;28;20416;-68
2021/07/08 06:17:24;;;;;;;15.37;8.90;;;;;;;;;;5096280;28;20404;-69
2021/07/08 06:19:50;;;;;;;13.10;11.70;;;;;;;;;;5089234;28;20423;-68
2021/07/08 06:22:16;;;;;;;14.60;10.60;;;;;;;;;;5097800;28;20405;-69
2021/07/08 06:24:43;;;;;;;14.60;11.90;;;;;;;;;;5094630;28;20497;-69
2021/07/08 06:27:09;;;;;;;18.20;10.77;;;;;;;;;;5096491;28;20451;-69
2021/07/08 06:29:36;;;;;;;13.93;12.53;;;;;;;;;;5094466;28;20931;-68
2021/07/08 06:32:02;;;;;;;13.00;10.80;;;;;;;;;;5096360;28;20439;-69
2021/07/08 06:34:28;;;;;;;14.67;11.30;;;;;;;;;;5087747;28;20506;-69
2021/07/08 06:36:54;;;;;;;18.10;11.50;;;;;;;;;;5075629;28;20416;-69
2021/07/08 06:39:20;;;;;;;14.47;11.60;;;;;;;;;;5077745;28;20499;-69
2021/07/08 06:41:46;;;;;;;14.03;12.47;;;;;;;;;;5096020;28;20955;-69
2021/07/08 06:44:12;;;;;;;14.87;12.47;;;;;;;;;;5093983;28;20460;-69
2021/07/08 06:46:38;;;;;;;12.90;11.40;;;;;;;;;;5093492;28;20880;-69
2021/07/08 06:49:05;;;;;;;14.67;11.47;;;;;;;;;;5066745;28;20844;-69
2021/07/08 06:51:31;;;;;;;14.17;11.93;;;;;;;;;;5071823;28;20439;-68
2021/07/08 06:53:57;;;;;;;12.83;10.77;;;;;;;;;;5075786;28;20441;-68
2021/07/08 06:56:24;;;;;;;19.77;12.43;;;;;;;;;;5080164;28;20417;-68
2021/07/08 06:58:50;;;;;;;20.50;14.70;;;;;;;;;;5073956;28;20433;-68
2021/07/08 07:01:17;;;;;;;19.57;15.67;;;;;;;;;;5093266;28;20427;-68
2021/07/08 07:03:43;;;;;;;17.73;13.77;;;;;;;;;;5069026;28;20445;-68
2021/07/08 07:06:09;;;;;;;17.60;14.63;;;;;;;;;;5064487;28;20497;-69
2021/07/08 07:08:35;;;;;;;20.43;15.90;;;;;;;;;;5065264;28;20515;-69
2021/07/08 07:11:01;;;;;;;21.10;14.87;;;;;;;;;;5071880;28;20452;-69
2021/07/08 07:13:27;;;;;;;20.10;15.40;;;;;;;;;;5072918;28;20417;-68
2021/07/08 07:15:53;;;;;;;22.70;16.90;;;;;;;;;;5072062;28;20421;-69
2021/07/08 07:18:20;;;;;;;19.30;15.63;;;;;;;;;;5074817;28;20500;-69
2021/07/08 07:20:46;;;;;;;21.20;17.37;;;;;;;;;;5071804;28;20449;-69
2021/07/08 07:23:12;;;;;;;18.57;14.50;;;;;;;;;;5074018;28;20420;-69
2021/07/08 07:25:41;;;;;;;19.83;17.27;;;;;;;;;;5073487;28;20435;-69
2021/07/08 07:28:10;;;;;;;21.10;15.20;;;;;;;;;;5071513;28;20459;-68
2021/07/08 07:30:37;;;;;;;18.87;15.17;;;;;;;;;;5073082;28;20866;-69
2021/07/08 07:33:03;;;;;;;23.40;17.23;;;;;;;;;;5072424;28;20401;-69
2021/07/08 07:35:29;;;;;;;21.50;15.80;;;;;;;;;;5072695;28;20422;-68
2021/07/08 07:37:55;;;;;;;20.07;15.20;;;;;;;;;;5074050;28;20412;-69
2021/07/08 07:40:21;;;;;;;21.37;17.30;;;;;;;;;;5080745;28;20937;-69
2021/07/08 07:42:48;;;;;;;23.27;19.73;;;;;;;;;;5074190;28;20444;-69
2021/07/08 07:45:15;;;;;;;21.67;19.10;;;;;;;;;;5067147;28;20444;-68
2021/07/08 07:47:41;;;;;;;25.40;20.77;;;;;;;;;;5073577;28;20456;-69
2021/07/08 07:50:07;;;;;;;24.63;19.80;;;;;;;;;;5067457;28;20437;-69
2021/07/08 07:52:34;;;;;;;27.07;19.87;;;;;;;;;;5069446;28;20421;-69
2021/07/08 07:55:00;;;;;;;24.40;20.13;;;;;;;;;;5071210;28;20422;-69
2021/07/08 07:57:26;;;;;;;24.93;21.00;;;;;;;;;;5073073;28;20427;-68
2021/07/08 07:59:52;;;;;;;25.70;18.83;;;;;;;;;;5070279;28;20490;-68
2021/07/08 08:02:18;;;;;;;22.80;19.17;;;;;;;;;;5064873;28;20413;-69
2021/07/08 08:10:18;;;;;;;31.70;21.80;;;;;;;;;;5077655;28;20465;-68
2021/07/08 08:12:44;;;;;;;30.03;24.20;;;;;;;;;;5061930;28;20753;-69
2021/07/08 08:15:11;;;;;;;24.50;19.67;;;;;;;;;;5073030;28;20413;-69
2021/07/08 08:17:38;;;;;;;25.63;20.87;;;;;;;;;;5063296;28;20759;-69
2021/07/08 08:20:05;;;;;;;25.33;21.60;;;;;;;;;;5072085;28;20427;-69
2021/07/08 08:22:31;;;;;;;28.53;21.73;;;;;;;;;;5068704;28;20413;-69
2021/07/08 08:24:57;;;;;;;24.63;20.57;;;;;;;;;;5068132;28;20798;-69
2021/07/08 08:27:23;;;;;;;24.93;20.80;;;;;;;;;;5071558;28;20452;-69
2021/07/08 08:29:50;;;;;;;26.33;20.13;;;;;;;;;;5069728;28;20437;-69
2021/07/08 08:32:16;;;;;;;25.50;20.33;;;;;;;;;;5071167;28;20771;-69
2021/07/08 08:34:42;;;;;;;30.70;21.93;;;;;;;;;;5074883;28;20808;-69
2021/07/08 08:37:08;;;;;;;30.10;22.00;;;;;;;;;;5074014;28;20745;-68
2021/07/08 08:39:34;;;;;;;25.63;20.77;;;;;;;;;;5073132;28;20428;-68
2021/07/08 08:42:00;;;;;;;25.93;20.03;;;;;;;;;;5070683;28;20440;-69
2021/07/08 08:44:26;;;;;;;31.07;23.80;;;;;;;;;;5070872;28;20424;-69
2021/07/08 08:46:52;;;;;;;28.63;20.10;;;;;;;;;;5070103;28;20452;-69
2021/07/08 08:49:18;;;;;;;25.90;21.37;;;;;;;;;;5071611;28;20432;-68
2021/07/08 08:51:44;;;;;;;26.53;22.77;;;;;;;;;;5077739;28;20891;-69
2021/07/08 08:54:12;;;;;;;24.97;19.83;;;;;;;;;;5071611;28;21011;-69
2021/07/08 08:56:38;;;;;;;23.30;18.00;;;;;;;;;;5071265;28;20502;-69
2021/07/08 08:59:04;;;;;;;24.63;19.67;;;;;;;;;;5071595;28;20405;-69
2021/07/08 09:01:30;;;;;;;21.20;18.97;;;;;;;;;;5074697;28;20472;-69
2021/07/08 09:03:56;;;;;;;23.10;20.57;;;;;;;;;;5069174;28;20544;-69
2021/07/08 09:06:23;;;;;;;21.77;18.43;;;;;;;;;;5071671;28;20514;-69
2021/07/08 09:08:50;;;;;;;22.00;18.57;;;;;;;;;;5071046;28;20453;-67
2021/07/08 09:11:21;;;;;;;21.53;19.20;;;;;;;;;;5073748;28;20467;-67
2021/07/08 09:13:49;;;;;;;27.37;22.13;;;;;;;;;;5065753;28;20424;-68
2021/07/08 09:16:15;;;;;;;24.83;22.20;;;;;;;;;;5067658;28;20416;-68
2021/07/08 09:18:42;;;;;;;28.20;22.87;;;;;;;;;;5071049;28;20446;-68
2021/07/08 09:21:19;;;;;;;25.63;22.47;;;;;;;;;;5074803;28;21045;-68
2021/07/08 09:24:04;;;;;;;29.60;21.60;;;;;;;;;;5071944;28;20428;-68
2021/07/08 09:26:30;;;;;;;28.67;22.60;;;;;;;;;;5070733;28;20468;-68
2021/07/08 09:29:09;;;;;;;24.97;21.53;;;;;;;;;;5071501;28;20776;-68
2021/07/08 09:31:36;;;;;;;24.30;21.40;;;;;;;;;;5064475;28;20789;-68
2021/07/08 09:34:22;;;;;;;24.37;20.57;;;;;;;;;;5071368;28;20428;-68
2021/07/08 09:36:49;;;;;;;25.10;21.33;;;;;;;;;;5069855;28;20425;-68
2021/07/08 09:39:16;;;;;;;19.57;17.43;;;;;;;;;;5069832;28;20782;-68
2021/07/08 09:41:46;;;;;;;24.20;19.30;;;;;;;;;;5070133;28;20540;-68
2021/07/08 09:44:22;;;;;;;20.13;17.90;;;;;;;;;;5069653;28;20424;-68
2021/07/08 09:46:48;;;;;;;20.30;18.10;;;;;;;;;;5072107;28;20428;-68
2021/07/08 09:49:14;;;;;;;19.20;16.70;;;;;;;;;;5074072;28;20423;-68
2021/07/08 09:51:41;;;;;;;18.67;16.77;;;;;;;;;;5077384;28;20477;-69
2021/07/08 09:54:12;;;;;;;19.83;17.10;;;;;;;;;;5067977;28;20425;-69
2021/07/08 09:56:46;;;;;;;17.50;15.30;;;;;;;;;;5078731;28;20419;-69
2021/07/08 09:59:17;;;;;;;18.40;16.20;;;;;;;;;;5070630;28;20470;-68
2021/07/08 10:01:44;;;;;;;19.07;17.03;;;;;;;;;;5075128;28;20452;-69
2021/07/08 10:04:10;;;;;;;19.90;18.00;;;;;;;;;;5054357;28;20409;-69
2021/07/08 10:06:37;;;;;;;18.43;15.33;;;;;;;;;;5068764;28;20417;-69
2021/07/08 10:09:04;;;;;;;17.00;15.20;;;;;;;;;;5070023;28;20432;-69
2021/07/08 10:11:30;;;;;;;16.20;14.60;;;;;;;;;;5068773;28;20467;-69
2021/07/08 10:13:59;;;;;;;18.00;16.10;;;;;;;;;;5071290;28;20408;-69
2021/07/08 10:16:26;;;;;;;15.20;13.70;;;;;;;;;;5070808;28;20420;-69
2021/07/08 10:18:54;;;;;;;15.47;14.00;;;;;;;;;;5071261;28;20420;-69
2021/07/08 10:21:20;;;;;;;15.07;13.53;;;;;;;;;;5072106;28;20492;-69
2021/07/08 10:23:46;;;;;;;14.60;13.20;;;;;;;;;;5070857;28;20400;-68
2021/07/08 10:26:13;;;;;;;16.10;14.27;;;;;;;;;;5074843;28;20431;-69
2021/07/08 10:28:41;;;;;;;14.13;12.83;;;;;;;;;;5074437;28;20463;-69
2021/07/08 10:31:12;;;;;;;16.37;14.67;;;;;;;;;;5074118;28;20541;-69
2021/07/08 10:33:38;;;;;;;14.83;13.43;;;;;;;;;;5073966;28;20408;-69
2021/07/08 10:36:04;;;;;;;15.33;13.83;;;;;;;;;;5072705;28;20428;-69
2021/07/08 10:38:35;;;;;;;15.17;13.63;;;;;;;;;;5074802;28;20462;-68
2021/07/08 10:41:02;;;;;;;15.33;13.83;;;;;;;;;;5072858;28;20795;-69
2021/07/08 10:43:35;;;;;;;15.00;13.60;;;;;;;;;;5075110;28;20403;-69
2021/07/08 10:46:08;;;;;;;16.93;15.23;;;;;;;;;;5073617;28;20427;-69
2021/07/08 10:48:47;;;;;;;16.77;14.87;;;;;;;;;;5073176;28;20463;-69
2021/07/08 10:51:41;;;;;;;15.80;14.10;;;;;;;;;;5071991;28;20523;-69
2021/07/08 10:54:26;;;;;;;15.57;14.10;;;;;;;;;;5072359;28;20534;-69
2021/07/08 10:56:52;;;;;;;14.33;12.93;;;;;;;;;;5078224;28;20411;-69
2021/07/08 10:59:19;;;;;;;13.87;12.57;;;;;;;;;;5073621;28;20425;-68
2021/07/08 11:01:46;;;;;;;13.93;12.50;;;;;;;;;;5069065;28;20549;-68
2021/07/08 11:04:12;;;;;;;15.57;14.17;;;;;;;;;;5072434;28;20501;-68
2021/07/08 11:06:40;;;;;;;14.73;13.30;;;;;;;;;;5070625;28;20429;-68
2021/07/08 11:09:07;;;;;;;14.10;12.60;;;;;;;;;;5073457;28;20507;-68
2021/07/08 11:11:33;;;;;;;14.53;13.20;;;;;;;;;;5069595;28;20475;-68
2021/07/08 11:14:14;;;;;;;14.77;13.37;;;;;;;;;;5073767;28;21076;-68
2021/07/08 11:16:44;;;;;;;14.60;13.20;;;;;;;;;;5067957;28;20997;-68
2021/07/08 11:19:13;;;;;;;14.37;12.87;;;;;;;;;;5073037;28;20416;-68
2021/07/08 11:21:58;;;;;;;12.40;11.10;;;;;;;;;;5076859;28;20911;-68
2021/07/08 11:24:51;;;;;;;14.33;12.83;;;;;;;;;;5072910;28;20512;-68
2021/07/08 11:27:18;;;;;;;14.43;13.03;;;;;;;;;;5070900;28;20499;-68
2021/07/08 11:29:49;;;;;;;13.90;12.57;;;;;;;;;;5073389;28;20523;-68
2021/07/08 11:32:49;;;;;;;16.00;14.40;;;;;;;;;;5074516;28;20779;-68
2021/07/08 11:35:18;;;;;;;19.30;15.00;;;;;;;;;;5070748;28;20435;-68
2021/07/08 11:37:52;;;;;;;15.10;13.60;;;;;;;;;;5074785;28;20424;-68
2021/07/08 11:40:19;;;;;;;14.83;13.33;;;;;;;;;;5063268;28;20468;-68
2021/07/08 11:42:46;;;;;;;15.20;13.60;;;;;;;;;;5075815;28;20420;-68
2021/07/08 11:45:14;;;;;;;17.00;14.33;;;;;;;;;;5072426;28;20809;-69
2021/07/08 11:47:47;;;;;;;16.03;14.53;;;;;;;;;;5069816;28;20456;-69
2021/07/08 11:50:34;;;;;;;17.43;14.80;;;;;;;;;;5072574;28;20440;-68
2021/07/08 11:53:15;;;;;;;19.77;17.47;;;;;;;;;;5071847;28;20449;-69
2021/07/08 11:55:45;;;;;;;22.20;19.80;;;;;;;;;;5073556;28;20964;-68
2021/07/08 11:58:13;;;;;;;25.73;18.63;;;;;;;;;;5073759;28;20430;-69
2021/07/08 12:00:41;;;;;;;18.80;16.80;;;;;;;;;;5072519;28;20440;-68
2021/07/08 12:03:22;;;;;;;18.07;15.27;;;;;;;;;;5078679;28;20944;-68
2021/07/08 12:06:08;;;;;;;16.87;15.03;;;;;;;;;;5065742;28;20435;-68
2021/07/08 12:08:35;;;;;;;16.10;14.37;;;;;;;;;;5064945;28;20444;-68
2021/07/08 12:13:37;;;;;;;15.40;13.80;;;;;;;;;;5067110;28;20805;-68
2021/07/08 12:16:07;;;;;;;18.33;15.27;;;;;;;;;;5069926;28;20417;-68
2021/07/08 12:18:47;;;;;;;15.30;13.60;;;;;;;;;;5071694;28;20556;-68
2021/07/08 12:21:32;;;;;;;13.50;12.07;;;;;;;;;;5065387;28;20455;-68
2021/07/08 12:24:01;;;;;;;18.60;11.03;;;;;;;;;;5069645;28;20485;-68
2021/07/08 12:26:27;;;;;;;14.03;11.77;;;;;;;;;;5070090;28;20432;-67
2021/07/08 12:29:11;;;;;;;11.70;9.50;;;;;;;;;;5071781;28;20445;-67
2021/07/08 12:32:01;;;;;;;12.00;9.03;;;;;;;;;;5070285;28;20463;-68
2021/07/08 12:34:45;;;;;;;9.83;8.83;;;;;;;;;;5059287;28;20951;-67
2021/07/08 12:37:13;;;;;;;13.53;10.40;;;;;;;;;;5071026;28;20852;-67
2021/07/08 12:39:40;;;;;;;11.27;9.43;;;;;;;;;;5072269;28;20538;-67
2021/07/08 12:42:07;;;;;;;14.10;9.33;;;;;;;;;;5069322;28;20490;-68
2021/07/08 12:44:33;;;;;;;8.73;7.33;;;;;;;;;;5081112;28;20446;-68
2021/07/08 12:46:59;;;;;;;9.70;7.50;;;;;;;;;;5069576;28;20452;-68
2021/07/08 12:49:25;;;;;;;8.80;7.20;;;;;;;;;;5069631;28;20420;-67
2021/07/08 12:51:51;;;;;;;6.80;6.20;;;;;;;;;;5071227;28;20457;-66
2021/07/08 12:54:19;;;;;;;8.60;7.73;;;;;;;;;;5070794;28;20428;-67
2021/07/08 12:57:05;;;;;;;7.90;7.10;;;;;;;;;;5070707;28;20467;-67
2021/07/08 12:59:31;;;;;;;7.00;6.30;;;;;;;;;;5071115;28;21668;-68
2021/07/08 13:01:57;;;;;;;9.73;6.30;;;;;;;;;;5070655;28;20461;-66
2021/07/08 13:04:33;;;;;;;8.10;6.50;;;;;;;;;;5071337;28;20466;-66
2021/07/08 13:07:00;;;;;;;9.30;7.50;;;;;;;;;;5068273;28;20461;-68
2021/07/08 13:09:26;;;;;;;8.00;7.20;;;;;;;;;;5074344;28;20549;-68
2021/07/08 13:11:52;;;;;;;6.97;6.10;;;;;;;;;;5068954;28;20444;-68
2021/07/08 13:14:19;;;;;;;8.37;5.60;;;;;;;;;;5070286;28;20475;-68
2021/07/08 13:17:04;;;;;;;5.17;4.77;;;;;;;;;;5069084;28;20432;-68
2021/07/08 13:19:30;;;;;;;5.13;4.63;;;;;;;;;;5071057;28;20411;-67
2021/07/08 13:21:56;;;;;;;5.97;5.47;;;;;;;;;;5068454;28;20991;-68
2021/07/08 13:24:23;;;;;;;5.20;4.70;;;;;;;;;;5069826;28;20417;-68
2021/07/08 13:26:49;;;;;;;7.50;6.40;;;;;;;;;;5069363;28;20462;-68
2021/07/08 13:29:15;;;;;;;8.03;5.97;;;;;;;;;;5069317;28;20420;-68
2021/07/08 13:31:41;;;;;;;5.50;4.90;;;;;;;;;;5069002;28;20551;-67
2021/07/08 13:34:07;;;;;;;6.33;5.60;;;;;;;;;;5071090;28;20430;-68
2021/07/08 13:36:43;;;;;;;5.07;4.57;;;;;;;;;;5067306;28;20413;-67
2021/07/08 13:39:11;;;;;;;6.57;4.83;;;;;;;;;;5068250;28;20460;-68
2021/07/08 13:41:38;;;;;;;4.33;3.93;;;;;;;;;;5068355;28;20859;-67
2021/07/08 13:44:07;;;;;;;6.50;3.77;;;;;;;;;;5071690;28;20865;-68
2021/07/08 13:46:37;;;;;;;4.97;4.40;;;;;;;;;;5070357;28;20868;-68
2021/07/08 13:49:11;;;;;;;7.00;5.70;;;;;;;;;;5071891;28;20827;-69
2021/07/08 13:51:43;;;;;;;5.50;4.50;;;;;;;;;;5071970;28;20453;-68
2021/07/08 13:54:09;;;;;;;5.27;4.70;;;;;;;;;;5065512;28;20445;-68
2021/07/08 13:56:35;;;;;;;4.90;4.40;;;;;;;;;;5069109;28;20929;-68
2021/07/08 13:59:03;;;;;;;4.70;4.20;;;;;;;;;;5072064;28;20416;-68
2021/07/08 14:01:29;;;;;;;5.20;4.37;;;;;;;;;;5073551;28;20444;-68
2021/07/08 14:03:55;;;;;;;5.60;5.00;;;;;;;;;;5073621;28;20417;-69
2021/07/08 14:06:21;;;;;;;6.40;4.33;;;;;;;;;;5070844;28;20483;-70
2021/07/08 14:08:48;;;;;;;5.53;4.97;;;;;;;;;;5075953;28;20543;-69
2021/07/08 14:11:15;;;;;;;5.63;5.03;;;;;;;;;;5069498;28;20437;-70
2021/07/08 14:13:42;;;;;;;9.70;5.27;;;;;;;;;;5074158;28;20421;-69
2021/07/08 14:16:08;;;;;;;4.13;3.73;;;;;;;;;;5073998;28;20890;-69
2021/07/08 14:18:34;;;;;;;4.27;3.80;;;;;;;;;;5078167;28;20425;-69
2021/07/08 14:21:01;;;;;;;3.00;2.20;;;;;;;;;;5074009;28;20455;-69
2021/07/08 14:23:27;;;;;;;2.50;2.00;;;;;;;;;;5066453;28;20924;-69
2021/07/08 14:25:53;;;;;;;3.00;2.20;;;;;;;;;;5072816;28;20935;-69
2021/07/08 14:28:20;;;;;;;3.30;1.80;;;;;;;;;;5072281;28;20471;-69
2021/07/08 14:30:46;;;;;;;2.17;1.70;;;;;;;;;;5068343;28;20455;-69
2021/07/08 14:33:12;;;;;;;3.97;2.37;;;;;;;;;;5074304;28;20433;-67
2021/07/08 14:35:41;;;;;;;3.27;1.90;;;;;;;;;;5075584;28;20962;-69
2021/07/08 14:38:08;;;;;;;3.37;2.50;;;;;;;;;;5074540;28;20457;-68
2021/07/08 14:40:35;;;;;;;4.53;1.70;;;;;;;;;;5077596;28;20527;-67
2021/07/08 14:43:07;;;;;;;4.50;1.73;;;;;;;;;;5074609;28;20962;-67